sensor_id;sensor_type;location;lat;lon;timestamp;pressure;altitude;pressure_sealevel;temperature;humidity
82006;BME280;71529;47.484;19.064;2023-10-08T00:01:03;100520.78;;;18.58;46.68
82006;BME280;71529;47.484;19.064;2023-10-08T00:03:33;100507.44;;;18.56;46.79
82006;BME280;71529;47.484;19.064;2023-10-08T00:06:04;100508.97;;;18.59;47.39
82006;BME280;71529;47.484;19.064;2023-10-08T00:08:41;100516.03;;;18.60;49.66
82006;BME280;71529;47.484;19.064;2023-10-08T00:11:09;100502.88;;;18.57;50.01
82006;BME280;71529;47.484;19.064;2023-10-08T00:13:38;100500.53;;;18.54;48.27
82006;BME280;71529;47.484;19.064;2023-10-08T00:16:09;100503.06;;;18.55;47.26
82006;BME280;71529;47.484;19.064;2023-10-08T00:18:38;100505.94;;;18.54;47.20
82006;BME280;71529;47.484;19.064;2023-10-08T00:21:10;100488.50;;;18.56;46.80
82006;BME280;71529;47.484;19.064;2023-10-08T00:23:45;100481.53;;;18.62;46.79
82006;BME280;71529;47.484;19.064;2023-10-08T00:26:19;100472.09;;;18.58;46.08
82006;BME280;71529;47.484;19.064;2023-10-08T00:28:55;100487.66;;;18.56;45.72
82006;BME280;71529;47.484;19.064;2023-10-08T00:31:24;100497.56;;;18.63;45.86
82006;BME280;71529;47.484;19.064;2023-10-08T00:33:57;100495.25;;;18.60;44.89
82006;BME280;71529;47.484;19.064;2023-10-08T00:36:26;100490.66;;;18.61;46.88
82006;BME280;71529;47.484;19.064;2023-10-08T00:38:56;100493.72;;;18.58;50.02
82006;BME280;71529;47.484;19.064;2023-10-08T00:41:30;100489.16;;;18.58;45.83
82006;BME280;71529;47.484;19.064;2023-10-08T00:44:01;100482.91;;;18.58;46.26
82006;BME280;71529;47.484;19.064;2023-10-08T00:46:33;100476.84;;;18.56;45.43
82006;BME280;71529;47.484;19.064;2023-10-08T00:49:09;100474.13;;;18.56;46.73
82006;BME280;71529;47.484;19.064;2023-10-08T00:51:54;100470.88;;;18.60;47.09
82006;BME280;71529;47.484;19.064;2023-10-08T00:54:54;100474.31;;;18.54;47.01
82006;BME280;71529;47.484;19.064;2023-10-08T00:57:34;100468.06;;;18.54;50.40
82006;BME280;71529;47.484;19.064;2023-10-08T01:00:04;100462.16;;;18.50;46.49
82006;BME280;71529;47.484;19.064;2023-10-08T01:02:42;100451.81;;;18.54;45.42
82006;BME280;71529;47.484;19.064;2023-10-08T01:05:17;100454.53;;;18.54;45.93
82006;BME280;71529;47.484;19.064;2023-10-08T01:07:47;100456.22;;;18.55;45.49
82006;BME280;71529;47.484;19.064;2023-10-08T01:10:19;100458.09;;;18.54;45.66
82006;BME280;71529;47.484;19.064;2023-10-08T01:12:48;100458.38;;;18.59;46.23
82006;BME280;71529;47.484;19.064;2023-10-08T01:15:32;100454.38;;;18.55;46.91
82006;BME280;71529;47.484;19.064;2023-10-08T01:18:03;100448.78;;;18.57;45.61
82006;BME280;71529;47.484;19.064;2023-10-08T01:20:35;100438.13;;;18.55;46.12
82006;BME280;71529;47.484;19.064;2023-10-08T01:23:08;100441.84;;;18.54;46.09
82006;BME280;71529;47.484;19.064;2023-10-08T01:25:40;100449.97;;;18.54;47.96
82006;BME280;71529;47.484;19.064;2023-10-08T01:28:10;100439.16;;;18.54;46.86
82006;BME280;71529;47.484;19.064;2023-10-08T01:30:42;100442.88;;;18.53;46.53
82006;BME280;71529;47.484;19.064;2023-10-08T01:33:13;100428.31;;;18.54;46.11
82006;BME280;71529;47.484;19.064;2023-10-08T01:35:48;100426.28;;;18.56;44.97
82006;BME280;71529;47.484;19.064;2023-10-08T01:38:21;100423.66;;;18.63;42.54
82006;BME280;71529;47.484;19.064;2023-10-08T01:40:50;100425.56;;;18.62;43.92
82006;BME280;71529;47.484;19.064;2023-10-08T01:43:19;100417.06;;;18.65;43.96
82006;BME280;71529;47.484;19.064;2023-10-08T01:45:48;100418.91;;;18.65;44.05
82006;BME280;71529;47.484;19.064;2023-10-08T01:48:19;100405.00;;;18.68;44.25
82006;BME280;71529;47.484;19.064;2023-10-08T01:50:55;100401.00;;;18.64;45.68
82006;BME280;71529;47.484;19.064;2023-10-08T01:53:29;100398.28;;;18.64;46.56
82006;BME280;71529;47.484;19.064;2023-10-08T01:55:58;100396.97;;;18.60;43.53
82006;BME280;71529;47.484;19.064;2023-10-08T01:58:26;100382.97;;;18.56;43.11
82006;BME280;71529;47.484;19.064;2023-10-08T02:00:54;100382.25;;;18.62;42.60
82006;BME280;71529;47.484;19.064;2023-10-08T02:03:26;100382.88;;;18.64;42.38
82006;BME280;71529;47.484;19.064;2023-10-08T02:05:55;100388.13;;;18.66;43.07
82006;BME280;71529;47.484;19.064;2023-10-08T02:08:28;100398.75;;;18.67;43.68
82006;BME280;71529;47.484;19.064;2023-10-08T02:10:58;100395.22;;;18.67;43.41
82006;BME280;71529;47.484;19.064;2023-10-08T02:13:29;100390.91;;;18.58;42.81
82006;BME280;71529;47.484;19.064;2023-10-08T02:15:58;100380.16;;;18.64;42.89
82006;BME280;71529;47.484;19.064;2023-10-08T02:18:26;100385.59;;;18.64;44.89
82006;BME280;71529;47.484;19.064;2023-10-08T02:20:56;100383.63;;;18.58;43.88
82006;BME280;71529;47.484;19.064;2023-10-08T02:23:25;100388.28;;;18.64;43.43
82006;BME280;71529;47.484;19.064;2023-10-08T02:25:56;100387.47;;;18.64;44.31
82006;BME280;71529;47.484;19.064;2023-10-08T02:28:24;100380.38;;;18.63;45.84
82006;BME280;71529;47.484;19.064;2023-10-08T02:30:52;100378.41;;;18.57;47.22
82006;BME280;71529;47.484;19.064;2023-10-08T02:33:21;100385.03;;;18.54;45.45
82006;BME280;71529;47.484;19.064;2023-10-08T02:35:49;100363.38;;;18.54;48.21
82006;BME280;71529;47.484;19.064;2023-10-08T02:38:19;100357.97;;;18.54;48.46
82006;BME280;71529;47.484;19.064;2023-10-08T02:40:48;100357.31;;;18.52;49.79
82006;BME280;71529;47.484;19.064;2023-10-08T02:43:22;100359.75;;;18.47;48.13
82006;BME280;71529;47.484;19.064;2023-10-08T02:45:50;100365.72;;;18.43;45.50
82006;BME280;71529;47.484;19.064;2023-10-08T02:48:19;100357.81;;;18.41;47.10
82006;BME280;71529;47.484;19.064;2023-10-08T02:50:47;100362.91;;;18.51;47.02
82006;BME280;71529;47.484;19.064;2023-10-08T02:53:16;100361.44;;;18.48;46.71
82006;BME280;71529;47.484;19.064;2023-10-08T02:55:48;100360.13;;;18.44;48.16
82006;BME280;71529;47.484;19.064;2023-10-08T02:58:17;100361.25;;;18.50;47.02
82006;BME280;71529;47.484;19.064;2023-10-08T03:00:48;100356.09;;;18.40;48.78
82006;BME280;71529;47.484;19.064;2023-10-08T03:03:17;100352.41;;;18.41;47.82
82006;BME280;71529;47.484;19.064;2023-10-08T03:05:48;100342.94;;;18.37;46.22
82006;BME280;71529;47.484;19.064;2023-10-08T03:08:19;100335.78;;;18.44;47.43
82006;BME280;71529;47.484;19.064;2023-10-08T03:10:50;100336.00;;;18.35;47.37
82006;BME280;71529;47.484;19.064;2023-10-08T03:13:23;100339.19;;;18.38;49.87
82006;BME280;71529;47.484;19.064;2023-10-08T03:15:55;100340.75;;;18.33;46.54
82006;BME280;71529;47.484;19.064;2023-10-08T03:18:36;100355.50;;;18.30;48.08
82006;BME280;71529;47.484;19.064;2023-10-08T03:21:10;100350.38;;;18.35;47.01
82006;BME280;71529;47.484;19.064;2023-10-08T03:23:51;100345.81;;;18.36;47.33
82006;BME280;71529;47.484;19.064;2023-10-08T03:26:24;100334.53;;;18.32;47.44
82006;BME280;71529;47.484;19.064;2023-10-08T03:29:02;100338.25;;;18.31;48.37
82006;BME280;71529;47.484;19.064;2023-10-08T03:31:36;100336.00;;;18.35;47.77
82006;BME280;71529;47.484;19.064;2023-10-08T03:34:18;100331.63;;;18.34;47.72
82006;BME280;71529;47.484;19.064;2023-10-08T03:36:47;100327.25;;;18.33;48.73
82006;BME280;71529;47.484;19.064;2023-10-08T03:39:17;100318.97;;;18.34;47.28
82006;BME280;71529;47.484;19.064;2023-10-08T03:41:46;100314.75;;;18.32;45.89
82006;BME280;71529;47.484;19.064;2023-10-08T03:44:26;100313.56;;;18.34;45.92
82006;BME280;71529;47.484;19.064;2023-10-08T03:46:58;100305.25;;;18.36;50.13
82006;BME280;71529;47.484;19.064;2023-10-08T03:49:37;100300.84;;;18.35;46.75
82006;BME280;71529;47.484;19.064;2023-10-08T03:52:12;100292.94;;;18.33;48.19
82006;BME280;71529;47.484;19.064;2023-10-08T03:54:41;100285.94;;;18.39;47.14
82006;BME280;71529;47.484;19.064;2023-10-08T03:57:15;100288.19;;;18.35;47.83
82006;BME280;71529;47.484;19.064;2023-10-08T03:59:52;100291.25;;;18.32;49.31
82006;BME280;71529;47.484;19.064;2023-10-08T04:02:27;100294.44;;;18.36;48.70
82006;BME280;71529;47.484;19.064;2023-10-08T04:05:07;100297.34;;;18.34;47.97
82006;BME280;71529;47.484;19.064;2023-10-08T04:07:46;100305.25;;;18.36;48.04
82006;BME280;71529;47.484;19.064;2023-10-08T04:10:30;100281.66;;;18.30;48.82
82006;BME280;71529;47.484;19.064;2023-10-08T04:13:27;100279.59;;;18.32;49.64
82006;BME280;71529;47.484;19.064;2023-10-08T04:15:57;100278.66;;;18.39;48.99
82006;BME280;71529;47.484;19.064;2023-10-08T04:18:27;100275.69;;;18.34;51.38
82006;BME280;71529;47.484;19.064;2023-10-08T04:20:55;100288.91;;;18.29;51.84
82006;BME280;71529;47.484;19.064;2023-10-08T04:23:35;100284.16;;;18.31;51.46
82006;BME280;71529;47.484;19.064;2023-10-08T04:26:05;100267.47;;;18.28;50.62
82006;BME280;71529;47.484;19.064;2023-10-08T04:28:33;100261.97;;;18.36;48.04
82006;BME280;71529;47.484;19.064;2023-10-08T04:31:02;100266.06;;;18.32;49.50
82006;BME280;71529;47.484;19.064;2023-10-08T04:33:44;100257.31;;;18.30;48.56
82006;BME280;71529;47.484;19.064;2023-10-08T04:36:14;100262.25;;;18.26;48.96
82006;BME280;71529;47.484;19.064;2023-10-08T04:38:47;100269.50;;;18.26;48.73
82006;BME280;71529;47.484;19.064;2023-10-08T04:41:16;100279.78;;;18.30;48.61
82006;BME280;71529;47.484;19.064;2023-10-08T04:43:46;100274.06;;;18.40;50.61
82006;BME280;71529;47.484;19.064;2023-10-08T04:46:16;100269.91;;;18.37;49.20
82006;BME280;71529;47.484;19.064;2023-10-08T04:49:02;100263.13;;;18.41;49.12
82006;BME280;71529;47.484;19.064;2023-10-08T04:51:34;100267.97;;;18.46;49.58
82006;BME280;71529;47.484;19.064;2023-10-08T04:54:10;100275.22;;;18.60;48.09
82006;BME280;71529;47.484;19.064;2023-10-08T04:56:43;100281.06;;;18.78;48.54
82006;BME280;71529;47.484;19.064;2023-10-08T04:59:12;100267.09;;;18.74;47.17
82006;BME280;71529;47.484;19.064;2023-10-08T05:01:40;100268.66;;;18.84;46.85
82006;BME280;71529;47.484;19.064;2023-10-08T05:04:16;100259.28;;;18.86;47.28
82006;BME280;71529;47.484;19.064;2023-10-08T05:06:59;100260.22;;;18.93;46.00
82006;BME280;71529;47.484;19.064;2023-10-08T05:09:45;100270.84;;;18.95;46.66
82006;BME280;71529;47.484;19.064;2023-10-08T05:12:19;100281.41;;;18.90;47.29
82006;BME280;71529;47.484;19.064;2023-10-08T05:15:01;100276.84;;;18.90;47.16
82006;BME280;71529;47.484;19.064;2023-10-08T05:17:47;100282.72;;;18.94;46.79
82006;BME280;71529;47.484;19.064;2023-10-08T05:20:37;100272.69;;;18.94;47.90
82006;BME280;71529;47.484;19.064;2023-10-08T05:23:13;100286.81;;;18.90;47.64
82006;BME280;71529;47.484;19.064;2023-10-08T05:26:08;100281.28;;;18.98;47.63
82006;BME280;71529;47.484;19.064;2023-10-08T05:28:37;100299.59;;;18.96;47.56
82006;BME280;71529;47.484;19.064;2023-10-08T05:31:14;100311.44;;;18.95;47.70
82006;BME280;71529;47.484;19.064;2023-10-08T05:34:03;100296.06;;;18.95;48.61
82006;BME280;71529;47.484;19.064;2023-10-08T05:36:46;100294.13;;;19.10;48.27
82006;BME280;71529;47.484;19.064;2023-10-08T05:39:34;100289.16;;;19.14;47.32
82006;BME280;71529;47.484;19.064;2023-10-08T05:42:09;100304.47;;;19.21;46.83
82006;BME280;71529;47.484;19.064;2023-10-08T05:44:41;100320.78;;;19.28;45.83
82006;BME280;71529;47.484;19.064;2023-10-08T05:47:13;100314.91;;;19.24;45.74
82006;BME280;71529;47.484;19.064;2023-10-08T05:50:05;100311.84;;;19.27;47.23
82006;BME280;71529;47.484;19.064;2023-10-08T05:52:52;100309.75;;;19.29;46.28
82006;BME280;71529;47.484;19.064;2023-10-08T05:55:29;100318.72;;;19.30;46.16
82006;BME280;71529;47.484;19.064;2023-10-08T05:58:03;100332.66;;;19.41;45.35
82006;BME280;71529;47.484;19.064;2023-10-08T06:00:41;100324.31;;;19.43;46.92
82006;BME280;71529;47.484;19.064;2023-10-08T06:03:27;100322.81;;;19.40;45.83
82006;BME280;71529;47.484;19.064;2023-10-08T06:06:06;100334.63;;;19.33;46.61
82006;BME280;71529;47.484;19.064;2023-10-08T06:09:05;100329.28;;;19.39;47.35
82006;BME280;71529;47.484;19.064;2023-10-08T06:11:48;100336.69;;;19.31;47.11
82006;BME280;71529;47.484;19.064;2023-10-08T06:14:37;100343.59;;;19.33;46.91
82006;BME280;71529;47.484;19.064;2023-10-08T06:17:35;100350.88;;;19.33;47.06
82006;BME280;71529;47.484;19.064;2023-10-08T06:20:26;100346.69;;;19.30;47.97
82006;BME280;71529;47.484;19.064;2023-10-08T06:22:58;100350.06;;;19.32;47.96
82006;BME280;71529;47.484;19.064;2023-10-08T06:25:31;100344.25;;;19.35;47.20
82006;BME280;71529;47.484;19.064;2023-10-08T06:27:59;100347.84;;;19.42;46.84
82006;BME280;71529;47.484;19.064;2023-10-08T06:30:29;100355.97;;;19.42;47.11
82006;BME280;71529;47.484;19.064;2023-10-08T06:33:02;100356.63;;;19.44;47.27
82006;BME280;71529;47.484;19.064;2023-10-08T06:35:32;100374.25;;;19.55;46.36
82006;BME280;71529;47.484;19.064;2023-10-08T06:38:01;100375.00;;;19.49;46.78
82006;BME280;71529;47.484;19.064;2023-10-08T06:40:35;100368.38;;;19.51;47.06
82006;BME280;71529;47.484;19.064;2023-10-08T06:43:10;100374.94;;;19.42;48.04
82006;BME280;71529;47.484;19.064;2023-10-08T06:45:42;100385.13;;;19.40;47.04
82006;BME280;71529;47.484;19.064;2023-10-08T06:48:11;100362.63;;;19.40;47.03
82006;BME280;71529;47.484;19.064;2023-10-08T06:50:45;100364.31;;;19.41;47.37
82006;BME280;71529;47.484;19.064;2023-10-08T06:53:14;100369.13;;;19.45;46.82
82006;BME280;71529;47.484;19.064;2023-10-08T06:55:44;100369.78;;;19.47;46.65
82006;BME280;71529;47.484;19.064;2023-10-08T06:58:15;100374.75;;;19.44;47.28
82006;BME280;71529;47.484;19.064;2023-10-08T07:00:44;100364.31;;;19.41;47.54
82006;BME280;71529;47.484;19.064;2023-10-08T07:03:16;100353.47;;;19.41;48.15
82006;BME280;71529;47.484;19.064;2023-10-08T07:05:48;100360.75;;;19.40;48.04
82006;BME280;71529;47.484;19.064;2023-10-08T07:08:26;100356.13;;;19.34;49.11
82006;BME280;71529;47.484;19.064;2023-10-08T07:10:59;100361.91;;;19.31;49.39
82006;BME280;71529;47.484;19.064;2023-10-08T07:13:28;100362.25;;;19.43;48.05
82006;BME280;71529;47.484;19.064;2023-10-08T07:15:57;100347.84;;;19.42;49.03
82006;BME280;71529;47.484;19.064;2023-10-08T07:18:27;100353.47;;;19.41;48.16
82006;BME280;71529;47.484;19.064;2023-10-08T07:21:02;100351.16;;;19.38;49.39
82006;BME280;71529;47.484;19.064;2023-10-08T07:23:39;100347.41;;;19.39;48.87
82006;BME280;71529;47.484;19.064;2023-10-08T07:26:26;100340.84;;;19.48;48.78
82006;BME280;71529;47.484;19.064;2023-10-08T07:29:04;100342.59;;;19.55;47.27
82006;BME280;71529;47.484;19.064;2023-10-08T07:31:36;100337.03;;;19.42;48.52
82006;BME280;71529;47.484;19.064;2023-10-08T07:34:04;100352.53;;;19.48;49.97
82006;BME280;71529;47.484;19.064;2023-10-08T07:36:46;100367.66;;;19.43;48.73
82006;BME280;71529;47.484;19.064;2023-10-08T07:39:17;100358.00;;;19.55;48.37
82006;BME280;71529;47.484;19.064;2023-10-08T07:41:54;100353.94;;;19.44;49.69
82006;BME280;71529;47.484;19.064;2023-10-08T07:44:26;100347.22;;;19.40;49.57
82006;BME280;71529;47.484;19.064;2023-10-08T07:46:55;100342.13;;;19.52;48.92
82006;BME280;71529;47.484;19.064;2023-10-08T07:49:24;100352.22;;;19.43;50.19
82006;BME280;71529;47.484;19.064;2023-10-08T07:51:53;100329.16;;;19.47;50.66
82006;BME280;71529;47.484;19.064;2023-10-08T07:54:22;100336.63;;;19.45;50.23
82006;BME280;71529;47.484;19.064;2023-10-08T07:56:51;100330.94;;;19.40;50.93
82006;BME280;71529;47.484;19.064;2023-10-08T07:59:22;100334.56;;;19.47;50.85
82006;BME280;71529;47.484;19.064;2023-10-08T08:01:51;100342.25;;;19.44;50.94
82006;BME280;71529;47.484;19.064;2023-10-08T08:04:21;100335.63;;;19.46;51.58
82006;BME280;71529;47.484;19.064;2023-10-08T08:06:50;100346.00;;;19.43;52.71
82006;BME280;71529;47.484;19.064;2023-10-08T08:09:20;100348.16;;;19.33;52.32
82006;BME280;71529;47.484;19.064;2023-10-08T08:11:51;100348.63;;;19.36;52.41
82006;BME280;71529;47.484;19.064;2023-10-08T08:14:25;100347.22;;;19.40;52.63
82006;BME280;71529;47.484;19.064;2023-10-08T08:16:55;100348.56;;;19.51;52.23
82006;BME280;71529;47.484;19.064;2023-10-08T08:19:41;100359.47;;;19.57;51.80
82006;BME280;71529;47.484;19.064;2023-10-08T08:22:11;100357.59;;;19.58;52.39
82006;BME280;71529;47.484;19.064;2023-10-08T08:24:42;100352.44;;;19.63;52.00
82006;BME280;71529;47.484;19.064;2023-10-08T08:27:12;100358.09;;;19.68;51.66
82006;BME280;71529;47.484;19.064;2023-10-08T08:29:53;100370.66;;;19.69;51.99
82006;BME280;71529;47.484;19.064;2023-10-08T08:32:23;100365.69;;;19.72;51.71
82006;BME280;71529;47.484;19.064;2023-10-08T08:34:51;100376.06;;;19.69;52.17
82006;BME280;71529;47.484;19.064;2023-10-08T08:37:20;100374.22;;;19.69;52.71
82006;BME280;71529;47.484;19.064;2023-10-08T08:39:49;100377.63;;;19.78;51.76
82006;BME280;71529;47.484;19.064;2023-10-08T08:42:22;100365.28;;;19.75;52.42
82006;BME280;71529;47.484;19.064;2023-10-08T08:44:53;100360.91;;;19.74;52.28
82006;BME280;71529;47.484;19.064;2023-10-08T08:47:25;100363.81;;;19.73;52.49
82006;BME280;71529;47.484;19.064;2023-10-08T08:49:56;100367.28;;;19.67;53.19
82006;BME280;71529;47.484;19.064;2023-10-08T08:52:35;100392.13;;;19.70;53.65
82006;BME280;71529;47.484;19.064;2023-10-08T08:55:06;100386.56;;;19.78;53.04
82006;BME280;71529;47.484;19.064;2023-10-08T08:57:41;100389.94;;;19.80;53.42
82006;BME280;71529;47.484;19.064;2023-10-08T09:00:13;100401.22;;;19.84;53.62
82006;BME280;71529;47.484;19.064;2023-10-08T09:02:45;100402.06;;;19.84;53.17
82006;BME280;71529;47.484;19.064;2023-10-08T09:05:16;100389.56;;;19.83;53.34
82006;BME280;71529;47.484;19.064;2023-10-08T09:07:55;100410.59;;;19.81;53.98
82006;BME280;71529;47.484;19.064;2023-10-08T09:10:25;100416.78;;;19.97;53.06
82006;BME280;71529;47.484;19.064;2023-10-08T09:12:56;100412.00;;;19.99;52.93
82006;BME280;71529;47.484;19.064;2023-10-08T09:15:28;100400.25;;;19.92;53.67
82006;BME280;71529;47.484;19.064;2023-10-08T09:17:56;100400.91;;;19.94;53.45
82006;BME280;71529;47.484;19.064;2023-10-08T09:20:28;100430.22;;;20.05;53.24
82006;BME280;71529;47.484;19.064;2023-10-08T09:23:09;100427.88;;;20.02;53.38
82006;BME280;71529;47.484;19.064;2023-10-08T09:25:39;100452.53;;;20.07;53.27
82006;BME280;71529;47.484;19.064;2023-10-08T09:28:08;100452.50;;;20.21;52.78
82006;BME280;71529;47.484;19.064;2023-10-08T09:30:42;100455.63;;;20.18;52.69
82006;BME280;71529;47.484;19.064;2023-10-08T09:33:13;100461.31;;;20.23;52.58
82006;BME280;71529;47.484;19.064;2023-10-08T09:35:42;100469.44;;;20.23;52.89
82006;BME280;71529;47.484;19.064;2023-10-08T09:38:11;100465.06;;;20.22;53.52
82006;BME280;71529;47.484;19.064;2023-10-08T09:40:40;100468.72;;;20.15;54.27
82006;BME280;71529;47.484;19.064;2023-10-08T09:43:11;100479.19;;;20.18;53.75
82006;BME280;71529;47.484;19.064;2023-10-08T09:45:46;100501.09;;;20.16;54.03
82006;BME280;71529;47.484;19.064;2023-10-08T09:48:16;100479.19;;;20.18;54.00
82006;BME280;71529;47.484;19.064;2023-10-08T09:50:47;100490.50;;;20.21;54.03
82006;BME280;71529;47.484;19.064;2023-10-08T09:53:18;100476.72;;;20.23;53.62
82006;BME280;71529;47.484;19.064;2023-10-08T09:55:54;100497.34;;;20.17;54.23
82006;BME280;71529;47.484;19.064;2023-10-08T09:58:26;100494.38;;;20.33;53.41
82006;BME280;71529;47.484;19.064;2023-10-08T10:00:56;100498.53;;;20.29;53.80
82006;BME280;71529;47.484;19.064;2023-10-08T10:03:25;100524.81;;;20.29;54.04
82006;BME280;71529;47.484;19.064;2023-10-08T10:05:54;100513.09;;;20.28;54.32
82006;BME280;71529;47.484;19.064;2023-10-08T10:08:28;100524.56;;;20.24;54.16
82006;BME280;71529;47.484;19.064;2023-10-08T10:11:03;100543.75;;;20.22;53.81
82006;BME280;71529;47.484;19.064;2023-10-08T10:13:34;100535.19;;;20.25;53.63
82006;BME280;71529;47.484;19.064;2023-10-08T10:16:06;100551.47;;;20.25;54.25
82006;BME280;71529;47.484;19.064;2023-10-08T10:18:35;100549.63;;;20.26;54.32
82006;BME280;71529;47.484;19.064;2023-10-08T10:21:25;100537.06;;;20.25;54.39
82006;BME280;71529;47.484;19.064;2023-10-08T10:23:54;100545.59;;;20.22;54.91
82006;BME280;71529;47.484;19.064;2023-10-08T10:26:28;100543.63;;;20.16;55.17
82006;BME280;71529;47.484;19.064;2023-10-08T10:29:19;100549.44;;;20.13;55.54
82006;BME280;71529;47.484;19.064;2023-10-08T10:31:50;100561.44;;;20.04;56.04
82006;BME280;71529;47.484;19.064;2023-10-08T10:34:22;100556.66;;;20.06;55.77
82006;BME280;71529;47.484;19.064;2023-10-08T10:36:55;100524.41;;;19.96;55.73
82006;BME280;71529;47.484;19.064;2023-10-08T10:39:26;100542.19;;;19.99;55.11
82006;BME280;71529;47.484;19.064;2023-10-08T10:41:57;100557.59;;;19.98;54.55
82006;BME280;71529;47.484;19.064;2023-10-08T10:44:29;100567.31;;;20.07;54.72
82006;BME280;71529;47.484;19.064;2023-10-08T10:47:00;100568.91;;;20.02;54.38
82006;BME280;71529;47.484;19.064;2023-10-08T10:49:48;100564.78;;;20.06;53.11
82006;BME280;71529;47.484;19.064;2023-10-08T10:52:21;100554.59;;;20.08;52.69
82006;BME280;71529;47.484;19.064;2023-10-08T10:55:00;100571.25;;;20.05;53.06
82006;BME280;71529;47.484;19.064;2023-10-08T10:57:48;100583.72;;;19.99;53.34
82006;BME280;71529;47.484;19.064;2023-10-08T11:00:24;100587.06;;;20.01;53.15
82006;BME280;71529;47.484;19.064;2023-10-08T11:03:11;100587.06;;;20.01;53.17
82006;BME280;71529;47.484;19.064;2023-10-08T11:05:56;100580.16;;;19.99;52.79
82006;BME280;71529;47.484;19.064;2023-10-08T11:08:27;100582.28;;;20.03;52.82
82006;BME280;71529;47.484;19.064;2023-10-08T11:11:02;100594.75;;;19.98;52.19
82006;BME280;71529;47.484;19.064;2023-10-08T11:13:34;100595.03;;;20.03;50.70
82006;BME280;71529;47.484;19.064;2023-10-08T11:16:07;100601.56;;;19.94;50.90
82006;BME280;71529;47.484;19.064;2023-10-08T11:18:45;100606.53;;;19.90;51.15
82006;BME280;71529;47.484;19.064;2023-10-08T11:21:18;100610.56;;;19.94;49.85
82006;BME280;71529;47.484;19.064;2023-10-08T11:23:52;100601.56;;;19.94;49.73
82006;BME280;71529;47.484;19.064;2023-10-08T11:26:23;100622.44;;;19.78;49.29
82006;BME280;71529;47.484;19.064;2023-10-08T11:29:00;100616.19;;;19.78;48.27
82006;BME280;71529;47.484;19.064;2023-10-08T11:31:30;100614.41;;;19.70;48.99
82006;BME280;71529;47.484;19.064;2023-10-08T11:34:03;100624.50;;;19.62;49.06
82006;BME280;71529;47.484;19.064;2023-10-08T11:36:37;100623.84;;;19.60;48.19
82006;BME280;71529;47.484;19.064;2023-10-08T11:39:16;100622.00;;;19.60;48.61
82006;BME280;71529;47.484;19.064;2023-10-08T11:41:56;100625.16;;;19.49;47.26
82006;BME280;71529;47.484;19.064;2023-10-08T11:44:24;100639.09;;;19.46;47.32
82006;BME280;71529;47.484;19.064;2023-10-08T11:46:57;100645.31;;;19.47;47.55
82006;BME280;71529;47.484;19.064;2023-10-08T11:49:40;100662.53;;;19.39;46.98
82006;BME280;71529;47.484;19.064;2023-10-08T11:52:15;100659.88;;;19.31;47.49
82006;BME280;71529;47.484;19.064;2023-10-08T11:54:44;100639.94;;;19.24;47.89
82006;BME280;71529;47.484;19.064;2023-10-08T11:57:15;100651.75;;;19.31;47.26
82006;BME280;71529;47.484;19.064;2023-10-08T11:59:50;100652.72;;;19.16;47.38
82006;BME280;71529;47.484;19.064;2023-10-08T12:02:23;100664.78;;;19.13;47.51
82006;BME280;71529;47.484;19.064;2023-10-08T12:04:52;100667.50;;;19.13;47.30
82006;BME280;71529;47.484;19.064;2023-10-08T12:07:25;100669.31;;;18.98;47.79
82006;BME280;71529;47.484;19.064;2023-10-08T12:09:55;100683.13;;;19.03;47.71
82006;BME280;71529;47.484;19.064;2023-10-08T12:12:23;100684.84;;;19.04;48.04
82006;BME280;71529;47.484;19.064;2023-10-08T12:14:51;100697.91;;;19.01;47.25
82006;BME280;71529;47.484;19.064;2023-10-08T12:17:22;100708.59;;;18.94;47.21
82006;BME280;71529;47.484;19.064;2023-10-08T12:20:08;100714.66;;;18.96;46.50
82006;BME280;71529;47.484;19.064;2023-10-08T12:22:51;100720.22;;;18.80;46.86
82006;BME280;71529;47.484;19.064;2023-10-08T12:25:20;100724.97;;;18.78;46.62
82006;BME280;71529;47.484;19.064;2023-10-08T12:27:50;100719.25;;;18.73;46.73
82006;BME280;71529;47.484;19.064;2023-10-08T12:30:18;100731.97;;;18.64;47.27
82006;BME280;71529;47.484;19.064;2023-10-08T12:32:58;100742.78;;;18.64;46.77
82006;BME280;71529;47.484;19.064;2023-10-08T12:35:28;100734.03;;;18.62;47.19
82006;BME280;71529;47.484;19.064;2023-10-08T12:37:57;100732.81;;;18.65;47.46
82006;BME280;71529;47.484;19.064;2023-10-08T12:40:25;100734.53;;;18.66;47.44
82006;BME280;71529;47.484;19.064;2023-10-08T12:43:09;100730.03;;;18.50;46.97
82006;BME280;71529;47.484;19.064;2023-10-08T12:45:37;100725.34;;;18.44;46.71
82006;BME280;71529;47.484;19.064;2023-10-08T12:48:06;100738.19;;;18.42;47.05
82006;BME280;71529;47.484;19.064;2023-10-08T12:50:37;100743.25;;;18.45;47.55
82006;BME280;71529;47.484;19.064;2023-10-08T12:53:10;100746.44;;;18.49;47.23
82006;BME280;71529;47.484;19.064;2023-10-08T12:55:39;100762.53;;;18.42;47.28
82006;BME280;71529;47.484;19.064;2023-10-08T12:58:07;100770.47;;;18.52;46.35
82006;BME280;71529;47.484;19.064;2023-10-08T13:00:38;100754.56;;;18.49;46.15
82006;BME280;71529;47.484;19.064;2023-10-08T13:03:10;100763.34;;;18.51;46.37
82006;BME280;71529;47.484;19.064;2023-10-08T13:05:45;100788.72;;;18.50;44.83
82006;BME280;71529;47.484;19.064;2023-10-08T13:08:16;100776.56;;;18.46;44.70
82006;BME280;71529;47.484;19.064;2023-10-08T13:10:46;100780.31;;;18.45;45.88
82006;BME280;71529;47.484;19.064;2023-10-08T13:13:18;100775.41;;;18.40;45.30